Time;durP1;ratioP1;P1;durP2;ratioP2;P2;SDS_P1;SDS_P2;PMS_P1;PMS_P2;Temp;Humidity;BMP_temperature;BMP_pressure;BME280_temperature;BME280_humidity;BME280_pressure;Samples;Min_cycle;Max_cycle;Signal;HPM_P1;HPM_P2
2021/12/08 00:00:30;;;;;;;10.98;3.58;;;4.10;99.90;;;;;;4940128;29;20501;-82
2021/12/08 00:02:57;;;;;;;13.50;3.55;;;4.00;99.90;;;;;;4955561;28;20494;-82
2021/12/08 00:05:24;;;;;;;11.18;3.95;;;4.00;99.90;;;;;;4939983;29;20122;-83
2021/12/08 00:07:50;;;;;;;12.55;4.20;;;4.00;99.90;;;;;;4955809;28;20119;-84
2021/12/08 00:10:50;;;;;;;13.75;4.60;;;3.90;99.90;;;;;;4955568;29;20086;-83
2021/12/08 00:13:07;;;;;;;16.65;4.50;;;3.90;99.90;;;;;;4955609;29;20054;-82
2021/12/08 00:15:37;;;;;;;15.90;4.80;;;3.70;99.90;;;;;;4955750;28;20047;-83
2021/12/08 00:18:06;;;;;;;12.25;4.18;;;3.80;99.90;;;;;;4955945;28;20094;-83
2021/12/08 00:20:33;;;;;;;11.63;5.25;;;3.80;99.90;;;;;;4955530;28;20552;-83
2021/12/08 00:23:00;;;;;;;12.57;4.28;;;3.90;99.90;;;;;;4955568;29;20050;-83
2021/12/08 00:25:27;;;;;;;15.13;4.43;;;4.00;99.90;;;;;;4955334;28;20374;-83
2021/12/08 00:27:53;;;;;;;14.20;4.45;;;4.10;99.90;;;;;;4939913;29;20086;-83
2021/12/08 00:30:19;;;;;;;13.32;4.38;;;4.10;99.90;;;;;;4955586;29;20078;-83
2021/12/08 00:32:46;;;;;;;14.98;4.72;;;4.10;99.90;;;;;;4955013;29;20047;-83
2021/12/08 00:35:12;;;;;;;17.20;5.60;;;4.10;99.90;;;;;;4955564;29;20078;-83
2021/12/08 00:37:38;;;;;;;18.17;5.65;;;4.20;99.90;;;;;;4955447;28;20050;-82
2021/12/08 00:40:07;;;;;;;16.52;5.18;;;4.00;99.90;;;;;;4955013;28;20471;-83
2021/12/08 00:42:33;;;;;;;10.00;4.13;;;3.90;99.90;;;;;;4955149;29;20047;-83
2021/12/08 00:44:59;;;;;;;14.55;4.35;;;3.90;99.90;;;;;;4955151;28;20054;-83
2021/12/08 00:47:26;;;;;;;15.95;5.15;;;4.00;99.90;;;;;;4939227;29;20035;-82
2021/12/08 00:49:52;;;;;;;13.93;4.63;;;4.10;99.90;;;;;;4955343;28;20376;-83
2021/12/08 00:52:18;;;;;;;14.20;5.55;;;4.00;99.90;;;;;;4939400;29;20403;-83
2021/12/08 00:54:43;;;;;;;19.65;5.93;;;4.10;99.90;;;;;;4954836;28;20051;-82
2021/12/08 00:57:10;;;;;;;13.10;4.80;;;4.10;99.90;;;;;;4955060;28;20053;-82
2021/12/08 00:59:37;;;;;;;11.52;4.43;;;4.20;99.90;;;;;;4939119;29;20142;-82
2021/12/08 01:02:04;;;;;;;21.05;4.97;;;4.20;99.90;;;;;;4954877;28;20053;-83
2021/12/08 01:04:30;;;;;;;14.32;4.82;;;4.30;99.90;;;;;;4954392;29;20130;-82
2021/12/08 01:06:56;;;;;;;16.02;5.28;;;4.30;99.90;;;;;;4954809;29;20047;-83
2021/12/08 01:09:22;;;;;;;14.73;5.82;;;4.30;99.90;;;;;;4954749;29;20372;-83
2021/12/08 01:11:48;;;;;;;16.25;5.88;;;4.40;99.90;;;;;;4939093;29;20047;-83
2021/12/08 01:14:15;;;;;;;15.27;5.30;;;4.30;99.90;;;;;;4954682;29;20047;-83
2021/12/08 01:16:41;;;;;;;12.90;4.68;;;4.20;99.90;;;;;;4955144;28;20106;-83
2021/12/08 01:19:08;;;;;;;16.77;5.80;;;4.30;99.90;;;;;;4954566;29;20047;-84
2021/12/08 01:21:34;;;;;;;15.10;5.13;;;4.30;99.90;;;;;;4938805;29;20035;-83
2021/12/08 01:24:00;;;;;;;20.00;5.03;;;4.40;99.90;;;;;;4938671;29;20039;-83
2021/12/08 01:26:27;;;;;;;17.40;5.38;;;4.40;99.90;;;;;;4954717;28;20047;-83
2021/12/08 01:28:56;;;;;;;13.77;5.30;;;4.50;99.90;;;;;;4954665;28;20088;-83
2021/12/08 01:31:22;;;;;;;16.23;5.25;;;4.40;99.90;;;;;;4954556;28;20078;-83
2021/12/08 01:33:48;;;;;;;14.18;5.07;;;4.50;99.90;;;;;;4953593;29;20058;-83
2021/12/08 01:36:14;;;;;;;12.98;4.70;;;4.60;99.90;;;;;;4954543;28;20039;-83
2021/12/08 01:38:40;;;;;;;12.30;4.32;;;4.50;99.90;;;;;;4954545;29;20062;-84
2021/12/08 01:41:06;;;;;;;10.90;3.90;;;4.50;99.90;;;;;;4954202;29;20138;-84
2021/12/08 01:46:27;;;;;;;12.98;4.03;;;4.80;99.90;;;;;;4954295;28;20445;-84
2021/12/08 01:48:53;;;;;;;11.05;4.90;;;4.70;99.90;;;;;;4954689;28;20122;-84
2021/12/08 01:51:19;;;;;;;11.95;4.57;;;4.80;99.90;;;;;;4954423;29;20479;-83
2021/12/08 01:53:50;;;;;;;15.65;4.72;;;4.70;99.90;;;;;;4954557;28;20073;-83
2021/12/08 01:56:17;;;;;;;10.60;4.15;;;4.80;99.90;;;;;;4954421;28;20043;-82
2021/12/08 01:58:44;;;;;;;11.73;4.45;;;4.60;99.90;;;;;;4954317;28;20049;-82
2021/12/08 02:01:12;;;;;;;14.20;4.72;;;4.60;99.90;;;;;;4954215;28;20099;-83
2021/12/08 02:03:39;;;;;;;10.10;4.30;;;4.80;99.90;;;;;;4953781;29;20154;-82
2021/12/08 02:06:07;;;;;;;13.13;4.68;;;4.70;99.90;;;;;;4954527;28;20043;-83
2021/12/08 02:08:34;;;;;;;12.85;4.75;;;4.70;99.90;;;;;;4958028;28;20099;-83
2021/12/08 02:11:02;;;;;;;10.60;4.72;;;4.70;99.90;;;;;;4957645;28;20509;-82
2021/12/08 02:13:31;;;;;;;12.05;4.68;;;4.70;99.90;;;;;;4958057;28;20049;-83
2021/12/08 02:15:59;;;;;;;11.43;3.80;;;4.70;99.90;;;;;;4957980;28;20490;-82
2021/12/08 02:18:25;;;;;;;11.93;4.78;;;4.70;99.90;;;;;;4942130;29;20053;-82
2021/12/08 02:20:51;;;;;;;13.00;4.60;;;4.60;99.90;;;;;;4941775;29;20122;-82
2021/12/08 02:23:18;;;;;;;13.88;5.55;;;4.60;99.90;;;;;;4958259;28;20090;-82
2021/12/08 02:25:45;;;;;;;12.05;5.47;;;4.70;99.90;;;;;;4957819;29;20046;-82
2021/12/08 02:28:12;;;;;;;12.77;5.05;;;4.60;99.90;;;;;;4957886;28;20348;-82
2021/12/08 02:30:50;;;;;;;14.82;5.70;;;4.60;99.90;;;;;;4957864;28;20372;-82
2021/12/08 02:47:28;;;;;;;13.82;4.97;;;4.80;99.90;;;;;;4957476;29;20145;-82
2021/12/08 02:49:55;;;;;;;8.15;4.45;;;4.80;99.90;;;;;;4957452;28;20490;-82
2021/12/08 02:52:21;;;;;;;8.80;4.68;;;4.70;99.90;;;;;;4957247;29;20479;-82
2021/12/08 02:54:50;;;;;;;8.70;4.22;;;4.70;99.90;;;;;;4957502;28;20074;-82
2021/12/08 02:57:18;;;;;;;11.40;4.53;;;4.70;99.90;;;;;;4957141;28;20066;-82
2021/12/08 02:59:45;;;;;;;13.52;5.10;;;4.70;99.90;;;;;;4957202;29;20455;-82
2021/12/08 03:02:11;;;;;;;15.05;4.88;;;4.70;99.90;;;;;;4957384;28;20045;-82
2021/12/08 03:04:38;;;;;;;9.25;4.57;;;4.80;99.90;;;;;;4940782;29;20102;-82
2021/12/08 03:07:05;;;;;;;10.93;5.05;;;4.70;99.90;;;;;;4941244;29;20045;-82
2021/12/08 03:09:30;;;;;;;8.65;4.53;;;4.70;99.90;;;;;;4957141;28;20086;-82
2021/12/08 03:11:58;;;;;;;8.55;4.82;;;4.70;99.90;;;;;;4957137;29;20086;-82
2021/12/08 03:14:25;;;;;;;10.25;4.57;;;4.70;99.90;;;;;;4956834;28;20035;-82
2021/12/08 03:16:54;;;;;;;12.00;4.93;;;4.80;99.90;;;;;;4956912;28;20055;-82
2021/12/08 03:19:23;;;;;;;11.02;5.30;;;4.70;99.90;;;;;;4956465;28;20497;-82
2021/12/08 03:21:49;;;;;;;12.95;4.78;;;4.80;99.90;;;;;;4956573;28;20047;-82
2021/12/08 03:24:25;;;;;;;8.85;5.43;;;4.80;99.90;;;;;;4956643;29;20075;-81
2021/12/08 03:27:06;;;;;;;9.73;5.18;;;4.80;99.90;;;;;;4956571;28;20521;-81
2021/12/08 03:32:16;;;;;;;11.45;6.60;;;4.70;99.90;;;;;;4956571;29;20443;-82
2021/12/08 03:34:51;;;;;;;16.30;6.72;;;4.70;99.90;;;;;;4955534;28;20102;-81
2021/12/08 03:37:20;;;;;;;11.77;6.03;;;4.70;99.90;;;;;;4940937;29;20039;-82
2021/12/08 03:39:46;;;;;;;12.50;6.53;;;4.70;99.90;;;;;;4956573;28;20047;-82
2021/12/08 03:42:12;;;;;;;12.35;6.07;;;4.70;99.90;;;;;;4956531;28;20040;-82
2021/12/08 03:44:38;;;;;;;13.35;7.38;;;4.70;99.90;;;;;;4956355;29;20043;-82
2021/12/08 03:47:13;;;;;;;14.70;6.43;;;4.90;99.90;;;;;;4956440;28;20039;-82
2021/12/08 03:49:39;;;;;;;13.13;7.90;;;5.00;99.90;;;;;;4956141;28;20372;-82
2021/12/08 03:52:05;;;;;;;13.05;7.35;;;5.10;99.90;;;;;;4956239;28;20047;-82
2021/12/08 03:54:31;;;;;;;11.35;6.55;;;5.10;99.90;;;;;;4956228;29;20033;-82
2021/12/08 03:56:57;;;;;;;18.02;7.50;;;5.00;99.90;;;;;;4956230;28;20571;-82
2021/12/08 03:59:23;;;;;;;11.80;6.85;;;5.00;99.90;;;;;;4956094;29;20051;-82
2021/12/08 04:01:49;;;;;;;13.02;7.00;;;5.00;99.90;;;;;;4955649;28;20047;-81
2021/12/08 04:04:15;;;;;;;14.70;7.57;;;5.00;99.90;;;;;;4955818;29;20054;-82
2021/12/08 04:06:52;;;;;;;14.63;7.22;;;5.00;99.90;;;;;;4939732;29;20043;-82
2021/12/08 04:09:38;;;;;;;20.08;8.00;;;5.00;99.90;;;;;;4956155;28;20051;-82
2021/12/08 04:12:04;;;;;;;13.00;6.88;;;5.10;99.90;;;;;;4955696;28;20626;-82
2021/12/08 04:14:34;;;;;;;16.42;7.97;;;5.10;99.90;;;;;;4955858;28;20039;-82
2021/12/08 04:17:17;;;;;;;13.98;7.63;;;5.20;99.90;;;;;;4955801;28;20074;-82
2021/12/08 04:19:44;;;;;;;15.00;8.38;;;5.30;99.90;;;;;;4955588;29;20039;-82
2021/12/08 04:22:15;;;;;;;19.20;8.70;;;5.30;99.90;;;;;;4939938;29;20534;-82
2021/12/08 04:24:42;;;;;;;15.60;9.25;;;5.20;99.90;;;;;;4955583;28;20399;-82
2021/12/08 04:27:13;;;;;;;14.30;9.27;;;5.20;99.90;;;;;;4955566;28;20130;-82
2021/12/08 04:29:41;;;;;;;13.38;9.32;;;5.30;99.90;;;;;;4955040;28;20043;-82
2021/12/08 04:32:09;;;;;;;17.73;10.38;;;5.40;99.90;;;;;;4955517;28;20051;-82
2021/12/08 04:34:39;;;;;;;14.55;9.18;;;5.40;99.90;;;;;;4938908;29;20055;-82
2021/12/08 04:37:16;;;;;;;19.60;11.18;;;5.50;99.90;;;;;;4955271;28;20142;-82
2021/12/08 04:42:18;;;;;;;20.60;10.60;;;5.60;99.90;;;;;;4955536;28;20475;-82
2021/12/08 04:44:54;;;;;;;28.55;11.38;;;5.50;99.90;;;;;;4955237;28;20082;-82
2021/12/08 04:50:28;;;;;;;18.25;10.55;;;5.50;99.90;;;;;;4954868;28;20051;-81
2021/12/08 04:53:06;;;;;;;19.52;10.88;;;5.40;99.90;;;;;;4955286;29;20047;-82
2021/12/08 05:07:00;;;;;;;19.25;11.68;;;5.60;99.90;;;;;;4955001;28;20364;-82
2021/12/08 05:09:32;;;;;;;16.58;10.27;;;5.70;99.90;;;;;;4955273;28;20388;-82
2021/12/08 05:12:19;;;;;;;23.63;10.77;;;5.70;99.90;;;;;;4954896;29;20047;-82
2021/12/08 05:14:47;;;;;;;18.92;11.10;;;5.90;99.90;;;;;;4955019;28;20046;-82
2021/12/08 05:17:42;;;;;;;14.90;10.25;;;5.80;99.90;;;;;;4954791;29;20039;-82
2021/12/08 05:20:35;;;;;;;23.35;12.43;;;5.90;99.90;;;;;;4953638;29;20047;-82
2021/12/08 05:23:21;;;;;;;20.13;10.95;;;5.90;99.90;;;;;;4954792;28;20046;-82
2021/12/08 05:25:48;;;;;;;18.42;10.93;;;5.80;99.90;;;;;;4954842;28;20083;-82
2021/12/08 05:28:19;;;;;;;20.17;11.70;;;5.90;99.90;;;;;;4951693;28;20124;-82
2021/12/08 05:31:05;;;;;;;17.90;10.63;;;5.90;99.90;;;;;;4953360;29;20109;-82
2021/12/08 05:33:35;;;;;;;25.08;12.10;;;6.00;99.90;;;;;;4953942;29;20510;-82
2021/12/08 05:36:02;;;;;;;21.25;11.70;;;6.00;99.90;;;;;;4954668;29;20514;-82
2021/12/08 05:38:28;;;;;;;17.85;11.40;;;6.00;99.90;;;;;;4938217;29;20054;-82
2021/12/08 05:41:03;;;;;;;22.02;11.75;;;5.90;99.90;;;;;;4954271;28;20043;-82
2021/12/08 05:43:29;;;;;;;17.52;11.30;;;6.10;99.90;;;;;;4938772;29;20055;-82
2021/12/08 05:45:55;;;;;;;20.10;10.07;;;6.20;99.90;;;;;;4938309;29;20506;-82
2021/12/08 05:48:22;;;;;;;14.25;9.73;;;6.20;99.90;;;;;;4938503;29;20440;-82
2021/12/08 05:51:11;;;;;;;20.98;9.48;;;6.20;99.90;;;;;;4954423;29;20050;-82
2021/12/08 05:53:39;;;;;;;16.48;9.70;;;6.30;99.90;;;;;;4954537;29;20055;-82
2021/12/08 05:56:06;;;;;;;20.52;11.15;;;6.30;99.90;;;;;;4954145;29;20109;-83
2021/12/08 05:58:33;;;;;;;19.45;10.15;;;6.40;99.90;;;;;;4953991;29;20043;-82
2021/12/08 06:01:11;;;;;;;14.80;10.13;;;6.30;99.90;;;;;;4953824;29;20039;-82
2021/12/08 06:03:37;;;;;;;21.85;10.10;;;6.40;99.90;;;;;;4937819;29;20487;-82
2021/12/08 06:06:04;;;;;;;21.70;9.57;;;6.40;99.90;;;;;;4954299;29;20050;-82
2021/12/08 06:08:30;;;;;;;16.90;9.77;;;6.40;99.90;;;;;;4953965;29;20055;-82
2021/12/08 06:10:58;;;;;;;17.52;9.10;;;6.50;99.90;;;;;;4938373;29;20394;-82
2021/12/08 06:13:24;;;;;;;16.50;9.77;;;6.50;99.90;;;;;;4953755;29;20090;-82
2021/12/08 06:15:49;;;;;;;14.50;8.73;;;6.60;99.90;;;;;;4954525;29;20185;-82
2021/12/08 06:18:21;;;;;;;17.33;8.88;;;6.50;99.90;;;;;;4954218;29;20057;-82
2021/12/08 06:20:48;;;;;;;19.60;9.07;;;6.40;99.90;;;;;;4937940;29;20487;-82
2021/12/08 06:23:14;;;;;;;17.63;8.65;;;6.40;99.90;;;;;;4954083;29;20522;-82
2021/12/08 06:25:40;;;;;;;13.65;8.32;;;6.50;99.90;;;;;;4953895;29;20078;-82
2021/12/08 06:28:08;;;;;;;14.18;8.40;;;6.40;99.90;;;;;;4954075;29;20427;-82
2021/12/08 06:30:35;;;;;;;19.65;9.75;;;6.60;99.90;;;;;;4954153;29;20070;-82
2021/12/08 06:33:02;;;;;;;16.85;9.02;;;6.70;99.90;;;;;;4953304;29;20468;-82
2021/12/08 06:35:34;;;;;;;18.15;9.20;;;6.70;99.90;;;;;;4938482;29;20091;-82
2021/12/08 06:38:00;;;;;;;15.13;8.27;;;6.70;99.90;;;;;;4953945;29;20106;-82
2021/12/08 06:40:33;;;;;;;12.20;7.95;;;6.60;99.90;;;;;;4953723;29;20223;-83
2021/12/08 06:43:04;;;;;;;16.30;8.18;;;6.50;99.90;;;;;;4954244;29;20375;-83
2021/12/08 06:45:37;;;;;;;14.18;7.47;;;6.50;99.90;;;;;;4954002;29;20043;-82
2021/12/08 06:48:08;;;;;;;14.32;7.53;;;6.50;99.90;;;;;;4953801;29;20043;-83
2021/12/08 06:50:40;;;;;;;13.85;7.10;;;6.50;99.90;;;;;;4954088;29;20051;-82
2021/12/08 06:53:06;;;;;;;12.98;7.43;;;6.40;99.90;;;;;;4939074;29;20091;-83
2021/12/08 06:55:36;;;;;;;14.55;7.53;;;6.40;99.90;;;;;;4941126;29;20051;-82
2021/12/08 06:58:17;;;;;;;15.48;7.43;;;6.40;99.90;;;;;;4957381;29;20047;-83
2021/12/08 07:06:10;;;;;;;14.05;7.07;;;6.30;99.90;;;;;;4957337;29;20495;-83
2021/12/08 07:08:46;;;;;;;11.13;5.95;;;6.30;99.90;;;;;;4957201;29;20070;-82
2021/12/08 07:11:16;;;;;;;14.07;7.32;;;6.20;99.90;;;;;;4957504;29;20043;-82
2021/12/08 07:13:41;;;;;;;14.77;6.45;;;6.30;99.90;;;;;;4957119;29;20047;-82
2021/12/08 07:16:12;;;;;;;13.02;6.35;;;6.30;99.90;;;;;;4956602;29;20496;-82
2021/12/08 07:18:58;;;;;;;12.48;6.10;;;6.40;99.90;;;;;;4956733;29;20055;-82
2021/12/08 07:21:36;;;;;;;15.32;6.55;;;6.20;99.90;;;;;;4956941;29;20047;-82
2021/12/08 07:24:07;;;;;;;11.15;6.07;;;6.20;99.90;;;;;;4940671;29;20051;-82
2021/12/08 07:26:36;;;;;;;11.02;5.97;;;6.20;99.90;;;;;;4956470;29;20043;-82
2021/12/08 07:29:04;;;;;;;14.05;5.75;;;6.10;99.90;;;;;;4956779;29;20051;-82
2021/12/08 07:31:37;;;;;;;15.07;5.97;;;6.10;99.90;;;;;;4956519;29;20055;-82
2021/12/08 07:34:06;;;;;;;14.63;6.30;;;6.10;99.90;;;;;;4940239;29;20063;-83
2021/12/08 07:36:37;;;;;;;9.60;5.35;;;6.00;99.90;;;;;;4956527;29;20055;-83
2021/12/08 07:39:07;;;;;;;11.18;5.43;;;6.00;99.90;;;;;;4956295;29;20055;-83
2021/12/08 07:41:39;;;;;;;13.27;4.72;;;6.00;99.90;;;;;;4956237;29;20039;-83
2021/12/08 07:44:08;;;;;;;9.98;4.55;;;6.00;99.90;;;;;;4956928;29;20043;-83
2021/12/08 07:46:41;;;;;;;14.30;4.43;;;5.90;99.90;;;;;;4956511;29;20048;-83
2021/12/08 07:49:24;;;;;;;11.25;4.70;;;6.00;99.90;;;;;;4956063;29;20475;-83
2021/12/08 07:52:11;;;;;;;12.27;4.03;;;6.10;99.90;;;;;;4956464;29;20058;-82
2021/12/08 07:54:38;;;;;;;11.02;4.18;;;6.00;99.90;;;;;;4956286;29;20058;-82
2021/12/08 07:57:08;;;;;;;6.88;3.42;;;6.10;99.90;;;;;;4956346;29;20065;-82
2021/12/08 07:59:36;;;;;;;10.75;3.67;;;6.10;99.90;;;;;;4956226;29;20051;-83
2021/12/08 08:02:07;;;;;;;9.40;3.45;;;6.20;99.90;;;;;;4955544;29;20058;-82
2021/12/08 08:04:38;;;;;;;12.00;3.00;;;6.20;99.90;;;;;;4955722;28;20039;-82
2021/12/08 08:07:06;;;;;;;10.20;3.35;;;6.10;99.90;;;;;;4955825;29;20043;-83
2021/12/08 08:09:39;;;;;;;4.95;2.83;;;6.10;99.90;;;;;;4955774;29;20047;-82
2021/12/08 08:12:07;;;;;;;11.13;3.35;;;6.10;99.90;;;;;;4956043;29;20058;-83
2021/12/08 08:14:40;;;;;;;8.02;2.90;;;6.10;99.90;;;;;;4955345;29;20055;-75
2021/12/08 08:17:10;;;;;;;6.95;3.45;;;6.10;99.90;;;;;;4956021;29;20051;-74
2021/12/08 08:19:42;;;;;;;12.38;3.08;;;6.00;99.90;;;;;;4955657;29;20122;-74
2021/12/08 08:22:13;;;;;;;9.02;2.92;;;6.00;99.90;;;;;;4955762;29;20130;-75
2021/12/08 08:24:39;;;;;;;9.80;3.10;;;6.00;99.90;;;;;;4955657;29;20058;-75
2021/12/08 08:27:07;;;;;;;10.75;3.58;;;6.00;99.90;;;;;;4955616;29;20491;-74
2021/12/08 08:29:35;;;;;;;8.18;2.92;;;6.00;99.90;;;;;;4955638;29;20130;-73
2021/12/08 08:32:04;;;;;;;9.45;3.53;;;6.00;99.90;;;;;;4955380;29;20055;-73
2021/12/08 08:34:35;;;;;;;8.32;3.17;;;6.10;99.90;;;;;;4954774;29;20113;-73
2021/12/08 08:37:02;;;;;;;14.27;3.35;;;6.10;99.90;;;;;;4955316;29;20130;-73
2021/12/08 08:39:32;;;;;;;7.03;3.13;;;6.00;99.90;;;;;;4955139;29;20058;-73
2021/12/08 08:42:16;;;;;;;7.45;2.58;;;6.10;99.90;;;;;;4955108;29;20052;-73
2021/12/08 08:44:58;;;;;;;8.32;2.35;;;6.20;99.90;;;;;;4955826;29;20178;-75
2021/12/08 08:47:37;;;;;;;10.50;3.42;;;6.10;99.90;;;;;;4955356;29;20140;-75
2021/12/08 08:50:09;;;;;;;12.75;2.47;;;6.20;99.90;;;;;;4954905;29;20059;-74
2021/12/08 08:52:43;;;;;;;11.60;2.55;;;6.20;99.90;;;;;;4955432;29;20098;-75
2021/12/08 08:55:35;;;;;;;11.02;2.35;;;6.30;99.90;;;;;;4955009;29;20050;-75
2021/12/08 08:58:04;;;;;;;6.93;2.40;;;6.30;99.90;;;;;;4955189;29;20054;-74
2021/12/08 09:00:55;;;;;;;9.38;2.30;;;6.30;99.90;;;;;;4954605;29;20498;-75
2021/12/08 09:03:23;;;;;;;12.52;2.58;;;6.40;99.90;;;;;;4954462;29;20058;-73
2021/12/08 09:05:55;;;;;;;11.73;2.70;;;6.40;99.90;;;;;;4958914;29;20043;-76
2021/12/08 09:08:25;;;;;;;8.60;2.20;;;6.50;99.90;;;;;;4957245;29;20055;-73
2021/12/08 09:10:57;;;;;;;12.40;2.80;;;6.50;99.90;;;;;;4954624;29;20047;-73
2021/12/08 09:13:38;;;;;;;12.07;2.20;;;6.60;99.90;;;;;;4954983;29;20391;-73
2021/12/08 09:16:17;;;;;;;9.50;2.45;;;6.60;99.90;;;;;;4955301;28;20090;-73
2021/12/08 09:18:57;;;;;;;9.43;2.08;;;6.50;99.90;;;;;;4954891;29;20058;-73
2021/12/08 09:21:55;;;;;;;11.88;2.08;;;6.50;99.90;;;;;;4954340;29;20511;-73
2021/12/08 09:24:34;;;;;;;7.80;1.45;;;6.50;99.90;;;;;;4938522;29;20149;-73
2021/12/08 09:27:01;;;;;;;7.85;2.08;;;6.40;99.90;;;;;;4954698;29;20082;-82
2021/12/08 09:29:30;;;;;;;11.95;1.92;;;6.40;99.90;;;;;;4954345;29;20074;-75
2021/12/08 09:32:08;;;;;;;10.40;1.75;;;6.40;99.90;;;;;;4954702;29;20483;-74
2021/12/08 09:34:39;;;;;;;8.52;1.63;;;6.40;99.90;;;;;;4953853;29;20079;-74
2021/12/08 09:37:11;;;;;;;7.25;1.75;;;6.50;99.90;;;;;;4955809;29;20070;-73
2021/12/08 09:39:45;;;;;;;13.90;1.75;;;6.50;99.90;;;;;;4938571;29;20058;-74
2021/12/08 09:42:36;;;;;;;11.70;2.03;;;6.50;99.90;;;;;;4954328;29;20047;-74
2021/12/08 09:45:10;;;;;;;12.65;1.63;;;6.40;99.90;;;;;;4954611;29;20123;-74
2021/12/08 09:47:36;;;;;;;17.98;2.00;;;6.40;99.90;;;;;;4953948;29;20458;-74
2021/12/08 09:50:06;;;;;;;14.60;2.40;;;6.50;99.90;;;;;;4954341;29;20044;-74
2021/12/08 09:52:34;;;;;;;15.00;2.25;;;6.50;99.90;;;;;;4954206;29;20051;-75
2021/12/08 09:55:01;;;;;;;10.73;1.65;;;6.50;99.90;;;;;;4954319;29;20058;-74
2021/12/08 09:57:28;;;;;;;6.50;1.90;;;6.50;99.90;;;;;;4954325;29;20055;-74
2021/12/08 09:59:55;;;;;;;11.10;2.05;;;6.50;99.90;;;;;;4953868;29;20054;-75
2021/12/08 10:02:32;;;;;;;11.95;1.88;;;6.70;99.90;;;;;;4954192;29;20094;-74
2021/12/08 10:05:00;;;;;;;8.35;2.53;;;6.70;99.90;;;;;;4953613;29;20066;-74
2021/12/08 10:07:26;;;;;;;10.18;1.90;;;6.60;99.90;;;;;;4954291;29;20065;-77
2021/12/08 10:09:54;;;;;;;13.07;2.10;;;6.70;99.90;;;;;;4938388;29;20078;-73
2021/12/08 10:12:20;;;;;;;8.32;1.70;;;6.80;99.90;;;;;;4954223;29;20125;-73
2021/12/08 10:14:47;;;;;;;10.75;1.95;;;6.80;99.90;;;;;;4954074;29;20051;-78
2021/12/08 10:17:14;;;;;;;12.02;2.40;;;7.00;99.90;;;;;;4953916;29;20051;-84
2021/12/08 10:19:41;;;;;;;13.27;2.53;;;6.90;99.90;;;;;;4954530;29;20565;-91
2021/12/08 10:22:18;;;;;;;12.10;2.13;;;6.80;99.90;;;;;;4954316;29;20110;-86
2021/12/08 10:25:20;;;;;;;12.55;2.35;;;7.00;99.90;;;;;;4954519;29;20090;-86
2021/12/08 10:28:08;;;;;;;13.48;2.47;;;7.20;99.90;;;;;;4955882;28;20483;-82
2021/12/08 10:30:48;;;;;;;14.20;2.50;;;7.40;99.50;;;;;;4958435;29;20142;-90
2021/12/08 10:39:05;;;;;;;9.90;2.47;;;7.30;99.40;;;;;;4957656;29;20066;-87
2021/12/08 10:41:43;;;;;;;15.07;3.47;;;7.20;99.50;;;;;;4957731;29;20039;-81
2021/12/08 10:44:08;;;;;;;9.27;2.60;;;7.30;99.60;;;;;;4957418;29;20051;-87
2021/12/08 10:46:37;;;;;;;29.50;5.85;;;7.40;99.70;;;;;;4957425;29;20114;-81
2021/12/08 10:49:18;;;;;;;17.08;3.90;;;7.60;99.60;;;;;;4957417;29;20047;-79
2021/12/08 10:54:33;;;;;;;19.58;2.47;;;7.50;99.40;;;;;;4957838;29;20059;-93
2021/12/08 10:57:02;;;;;;;12.48;2.25;;;7.40;99.60;;;;;;4957638;29;20047;-81
2021/12/08 10:59:53;;;;;;;7.00;2.15;;;7.40;99.20;;;;;;4957346;29;20058;-80
2021/12/08 11:02:46;;;;;;;11.80;2.08;;;7.30;99.40;;;;;;4957232;29;20550;-72
2021/12/08 11:05:24;;;;;;;12.15;2.17;;;7.20;99.20;;;;;;4958434;29;20407;-72
2021/12/08 11:08:03;;;;;;;6.50;1.95;;;7.30;99.20;;;;;;4941293;29;20059;-71
2021/12/08 11:10:31;;;;;;;9.43;1.80;;;7.40;99.50;;;;;;4956804;29;20055;-72
2021/12/08 11:12:58;;;;;;;12.25;2.08;;;7.50;98.90;;;;;;4957009;29;20519;-71
2021/12/08 11:15:27;;;;;;;15.23;3.05;;;7.60;98.70;;;;;;4956866;29;20055;-87
2021/12/08 11:18:21;;;;;;;10.85;2.00;;;7.50;98.90;;;;;;4957596;29;20510;-73
2021/12/08 11:20:54;;;;;;;11.30;1.92;;;7.60;98.90;;;;;;4947430;29;20047;-73
2021/12/08 11:23:45;;;;;;;11.68;1.80;;;7.30;98.70;;;;;;4938892;29;20093;-73
2021/12/08 11:26:18;;;;;;;13.45;2.22;;;7.30;98.90;;;;;;4953859;29;20589;-75
2021/12/08 11:28:52;;;;;;;12.93;2.30;;;7.40;99.00;;;;;;4952771;29;20047;-73
2021/12/08 11:31:18;;;;;;;6.75;1.75;;;7.40;99.00;;;;;;4930567;29;20046;-73
2021/12/08 11:33:53;;;;;;;11.48;2.20;;;7.40;99.00;;;;;;4951464;29;20052;-73
2021/12/08 11:36:25;;;;;;;6.05;2.05;;;7.40;99.10;;;;;;4952487;29;20059;-74
2021/12/08 11:38:51;;;;;;;5.53;1.65;;;7.30;98.90;;;;;;4936810;29;20058;-73
2021/12/08 11:41:37;;;;;;;10.40;1.95;;;7.40;99.10;;;;;;4955579;29;20126;-72
2021/12/08 11:44:13;;;;;;;14.15;2.30;;;7.40;99.20;;;;;;4953816;29;20055;-73
2021/12/08 11:46:55;;;;;;;10.27;2.60;;;7.40;99.10;;;;;;4955150;29;20043;-72
2021/12/08 11:49:22;;;;;;;12.75;2.15;;;7.30;99.20;;;;;;4956022;28;20055;-71
2021/12/08 11:51:58;;;;;;;5.85;1.60;;;7.40;99.10;;;;;;4956432;29;20051;-72
2021/12/08 11:54:30;;;;;;;9.48;2.00;;;7.40;99.10;;;;;;4956009;29;20047;-73
2021/12/08 11:57:10;;;;;;;14.02;1.85;;;7.40;99.50;;;;;;4957553;29;20059;-73
2021/12/08 11:59:45;;;;;;;9.82;2.03;;;7.40;99.20;;;;;;4956489;28;20384;-72
2021/12/08 12:02:15;;;;;;;14.20;2.17;;;7.30;99.10;;;;;;4955999;29;20178;-70
2021/12/08 12:04:42;;;;;;;9.93;2.10;;;7.40;99.40;;;;;;4955623;29;20051;-72
2021/12/08 12:07:13;;;;;;;9.15;2.28;;;7.30;99.30;;;;;;4956225;28;20137;-72
2021/12/08 12:09:40;;;;;;;12.90;2.05;;;7.20;99.20;;;;;;4956041;28;20058;-72
2021/12/08 12:12:06;;;;;;;9.50;2.33;;;7.20;99.20;;;;;;4955794;29;20175;-72
2021/12/08 12:14:32;;;;;;;9.70;2.00;;;7.10;99.30;;;;;;4956700;29;20066;-72
2021/12/08 12:16:57;;;;;;;6.50;1.95;;;7.10;99.20;;;;;;4956537;29;20051;-73
2021/12/08 12:19:26;;;;;;;8.23;2.40;;;7.00;99.10;;;;;;4955847;29;20047;-72
2021/12/08 12:22:16;;;;;;;9.25;2.67;;;7.00;99.20;;;;;;4955724;29;20043;-72
2021/12/08 12:25:02;;;;;;;9.93;1.95;;;7.00;99.00;;;;;;4955465;28;20101;-73
2021/12/08 12:27:45;;;;;;;8.40;2.20;;;7.00;99.00;;;;;;4955541;29;20110;-73
2021/12/08 12:30:32;;;;;;;8.50;2.10;;;7.00;99.20;;;;;;4960089;29;20051;-74
2021/12/08 12:33:18;;;;;;;10.13;2.05;;;7.00;99.10;;;;;;4956994;29;20153;-73
2021/12/08 12:35:56;;;;;;;8.75;2.33;;;7.00;99.10;;;;;;4956069;28;20062;-72
2021/12/08 12:38:37;;;;;;;8.63;2.53;;;7.00;99.10;;;;;;4955652;29;20062;-72
2021/12/08 12:41:06;;;;;;;10.60;2.20;;;7.00;98.90;;;;;;4954976;29;20054;-72
2021/12/08 12:43:38;;;;;;;9.68;2.65;;;7.10;99.10;;;;;;4956027;28;20048;-73
2021/12/08 12:46:14;;;;;;;7.78;2.28;;;7.10;98.90;;;;;;4956334;28;20134;-72
2021/12/08 12:48:41;;;;;;;12.90;2.17;;;7.10;99.00;;;;;;4955680;29;20059;-73
2021/12/08 12:51:09;;;;;;;13.30;2.30;;;7.20;99.00;;;;;;4970474;28;20097;-72
2021/12/08 12:53:46;;;;;;;7.35;2.10;;;7.30;98.70;;;;;;4955142;29;20051;-73
2021/12/08 12:56:32;;;;;;;8.07;2.33;;;7.20;99.00;;;;;;4955214;29;20047;-72
2021/12/08 12:59:14;;;;;;;9.83;2.03;;;7.20;99.00;;;;;;4951056;29;20130;-72
2021/12/08 13:01:45;;;;;;;11.65;2.20;;;7.10;98.80;;;;;;4954994;28;20078;-72
2021/12/08 13:04:23;;;;;;;10.43;2.45;;;7.10;98.70;;;;;;4955486;28;20058;-72
2021/12/08 13:07:01;;;;;;;5.28;2.50;;;7.00;98.80;;;;;;4955616;29;20051;-72
2021/12/08 13:09:35;;;;;;;11.30;2.60;;;7.00;98.80;;;;;;4954429;28;20062;-72
2021/12/08 13:12:38;;;;;;;7.45;1.80;;;7.10;98.90;;;;;;4954740;28;20414;-72
2021/12/08 13:15:19;;;;;;;10.40;2.10;;;7.10;98.50;;;;;;4955410;28;20062;-72
2021/12/08 13:18:03;;;;;;;7.57;1.95;;;7.00;98.50;;;;;;4954719;29;20439;-72
2021/12/08 13:20:33;;;;;;;10.50;2.10;;;7.00;98.70;;;;;;4954674;28;20047;-73
2021/12/08 13:23:02;;;;;;;6.03;2.15;;;7.10;98.50;;;;;;4954673;29;20049;-73
2021/12/08 13:28:19;;;;;;;10.05;1.90;;;7.20;98.70;;;;;;4954896;28;20055;-73
2021/12/08 13:31:06;;;;;;;13.32;2.05;;;7.00;98.60;;;;;;4954402;28;20503;-73
2021/12/08 13:33:36;;;;;;;11.52;2.38;;;7.00;98.60;;;;;;4954932;28;20054;-74
2021/12/08 13:36:20;;;;;;;10.55;2.13;;;7.00;98.70;;;;;;4954528;29;20050;-72
2021/12/08 13:39:05;;;;;;;10.77;2.30;;;7.20;98.70;;;;;;4946396;29;20106;-73
2021/12/08 13:41:38;;;;;;;9.52;2.10;;;7.20;98.60;;;;;;4944040;29;20091;-73
2021/12/08 13:44:22;;;;;;;10.45;2.40;;;7.00;98.30;;;;;;4951291;29;20058;-73
2021/12/08 13:46:52;;;;;;;10.00;2.05;;;7.00;98.50;;;;;;4924550;29;20056;-73
2021/12/08 13:49:27;;;;;;;6.25;2.20;;;7.10;98.90;;;;;;4938656;28;20582;-73
2021/12/08 13:52:08;;;;;;;10.35;2.25;;;7.20;98.90;;;;;;4942451;29;20395;-73
2021/12/08 13:54:54;;;;;;;12.85;2.20;;;7.20;98.50;;;;;;4935781;29;20517;-73
2021/12/08 13:57:32;;;;;;;8.07;2.05;;;7.40;98.50;;;;;;4945334;29;20054;-74
2021/12/08 14:00:08;;;;;;;4.82;1.70;;;7.40;98.20;;;;;;4953243;28;20495;-73
2021/12/08 14:02:53;;;;;;;7.53;1.95;;;7.40;98.30;;;;;;4956578;28;20050;-72
2021/12/08 14:05:31;;;;;;;11.40;1.85;;;7.20;98.40;;;;;;4957697;29;20054;-72